Time;durP1;ratioP1;P1;durP2;ratioP2;P2;SDS_P1;SDS_P2;PMS_P1;PMS_P2;Temp;Humidity;BMP_temperature;BMP_pressure;BME280_temperature;BME280_humidity;BME280_pressure;Samples;Min_cycle;Max_cycle;Signal;HPM_P1;HPM_P2
2021/11/25 00:01:27;;;;;;;52.55;19.33;;;;;;;2.89;100.00;101419.69;5187024;28;20029;-82
2021/11/25 00:03:58;;;;;;;57.15;20.90;;;;;;;2.85;100.00;101411.09;5186329;28;20038;-83
2021/11/25 00:06:29;;;;;;;58.42;21.45;;;;;;;2.84;100.00;101404.09;5186609;28;20037;-83
2021/11/25 00:08:59;;;;;;;52.35;19.38;;;;;;;2.84;100.00;101401.44;5182759;28;20386;-82
2021/11/25 00:11:30;;;;;;;59.33;20.05;;;;;;;2.87;100.00;101395.94;5178448;28;20024;-83
2021/11/25 00:14:01;;;;;;;52.17;20.00;;;;;;;2.89;100.00;101390.53;5183073;28;20026;-83
2021/11/25 00:16:31;;;;;;;59.45;22.23;;;;;;;2.90;100.00;101390.41;5185846;28;20036;-81
2021/11/25 00:19:02;;;;;;;51.35;20.48;;;;;;;2.89;100.00;101388.72;5186225;28;20033;-82
2021/11/25 00:21:33;;;;;;;50.85;19.40;;;;;;;2.88;100.00;101396.78;5187041;28;20112;-82
2021/11/25 00:24:05;;;;;;;63.17;20.00;;;;;;;2.89;100.00;101394.03;5186098;28;20599;-80
2021/11/25 00:26:36;;;;;;;54.40;19.85;;;;;;;2.90;100.00;101394.88;5186512;28;20036;-79
2021/11/25 00:29:07;;;;;;;55.17;20.73;;;;;;;2.88;100.00;101392.34;5175000;28;20098;-83
2021/11/25 00:31:37;;;;;;;50.30;20.67;;;;;;;2.86;100.00;101378.31;5181917;28;20076;-82
2021/11/25 00:34:08;;;;;;;51.47;20.65;;;;;;;2.81;100.00;101381.31;5183883;28;20022;-79
2021/11/25 00:36:39;;;;;;;62.92;22.63;;;;;;;2.79;100.00;101380.56;5184857;28;20108;-82
2021/11/25 00:39:10;;;;;;;53.92;20.38;;;;;;;2.77;100.00;101377.16;5184015;28;20014;-82
2021/11/25 00:41:42;;;;;;;56.95;20.77;;;;;;;2.74;100.00;101373.88;5184395;28;20466;-82
2021/11/25 00:44:12;;;;;;;56.05;21.08;;;;;;;2.71;100.00;101376.72;5185270;28;20407;-81
2021/11/25 00:46:43;;;;;;;64.68;22.85;;;;;;;2.69;100.00;101371.53;5185782;28;20076;-82
2021/11/25 00:49:14;;;;;;;59.75;23.17;;;;;;;2.69;100.00;101365.38;5185161;28;20029;-82
2021/11/25 00:51:44;;;;;;;63.83;21.08;;;;;;;2.68;100.00;101372.47;5185584;28;20030;-82
2021/11/25 00:54:15;;;;;;;54.35;21.52;;;;;;;2.67;100.00;101376.09;5182563;28;20025;-82
2021/11/25 00:56:45;;;;;;;58.75;22.17;;;;;;;2.66;100.00;101374.41;5173658;28;20030;-82
2021/11/25 00:59:16;;;;;;;62.92;21.58;;;;;;;2.67;100.00;101377.88;5184365;28;20021;-82
2021/11/25 01:01:46;;;;;;;72.70;24.02;;;;;;;2.71;100.00;101376.72;5185536;28;20060;-82
2021/11/25 01:04:17;;;;;;;60.85;22.52;;;;;;;2.72;100.00;101376.63;5184274;28;20034;-82
2021/11/25 01:06:48;;;;;;;68.13;22.85;;;;;;;2.74;100.00;101376.50;5185519;28;20380;-82
2021/11/25 01:09:18;;;;;;;57.70;22.70;;;;;;;2.74;100.00;101374.72;5185702;28;20026;-82
2021/11/25 01:11:49;;;;;;;56.80;22.02;;;;;;;2.75;100.00;101380.84;5185595;28;20491;-82
2021/11/25 01:14:19;;;;;;;59.50;21.52;;;;;;;2.75;100.00;101372.91;5164067;28;20547;-82
2021/11/25 01:16:50;;;;;;;58.72;21.85;;;;;;;2.75;100.00;101378.22;5164648;28;20105;-82
2021/11/25 01:19:20;;;;;;;54.97;21.63;;;;;;;2.74;100.00;101372.06;5165353;28;20057;-82
2021/11/25 01:21:51;;;;;;;55.72;20.95;;;;;;;2.71;100.00;101367.00;5164886;28;20026;-82
2021/11/25 01:24:21;;;;;;;65.40;23.45;;;;;;;2.70;100.00;101373.22;5165315;28;20086;-82
2021/11/25 01:26:52;;;;;;;71.22;24.38;;;;;;;2.70;100.00;101361.78;5166786;28;20029;-82
2021/11/25 01:29:23;;;;;;;60.50;22.52;;;;;;;2.71;100.00;101360.81;5166089;28;20022;-82
2021/11/25 01:31:53;;;;;;;59.85;22.65;;;;;;;2.70;100.00;101367.06;5170415;28;20104;-83
2021/11/25 01:34:24;;;;;;;58.55;22.58;;;;;;;2.71;100.00;101347.56;5185811;28;20022;-82
2021/11/25 01:36:54;;;;;;;61.80;22.92;;;;;;;2.72;100.00;101360.72;5186838;28;20053;-82
2021/11/25 01:39:25;;;;;;;65.40;22.08;;;;;;;2.71;100.00;101351.09;5172902;28;20053;-82
2021/11/25 01:41:55;;;;;;;58.92;21.23;;;;;;;2.69;100.00;101352.97;5185487;28;20026;-82
2021/11/25 01:44:26;;;;;;;61.53;24.10;;;;;;;2.69;100.00;101342.38;5185544;28;20560;-81
2021/11/25 01:47:02;;;;;;;66.43;22.40;;;;;;;2.69;100.00;101347.69;5189133;28;20025;-82
2021/11/25 01:49:32;;;;;;;63.15;22.88;;;;;;;2.70;100.00;101335.28;5185205;28;20378;-82
2021/11/25 01:52:03;;;;;;;53.30;21.55;;;;;;;2.70;100.00;101349.38;5170450;28;20036;-82
2021/11/25 01:54:33;;;;;;;60.67;22.15;;;;;;;2.68;100.00;101345.13;5169426;28;20493;-82
2021/11/25 01:57:06;;;;;;;57.40;23.15;;;;;;;2.69;100.00;101344.19;5169597;28;20116;-82
2021/11/25 01:59:37;;;;;;;59.72;23.08;;;;;;;2.69;100.00;101341.53;5169793;28;20367;-83
2021/11/25 02:02:08;;;;;;;58.40;23.02;;;;;;;2.69;100.00;101331.78;5169253;28;20048;-82
2021/11/25 02:04:51;;;;;;;64.22;25.73;;;;;;;2.70;100.00;101322.88;5169491;28;20559;-81
2021/11/25 02:07:24;;;;;;;61.33;22.83;;;;;;;2.69;100.00;101323.84;5177457;28;20081;-78
2021/11/25 02:09:54;;;;;;;59.13;22.42;;;;;;;2.65;100.00;101325.00;5189205;28;20096;-78
2021/11/25 02:12:25;;;;;;;62.65;23.48;;;;;;;2.62;100.00;101324.38;5187565;28;20028;-79
2021/11/25 02:14:55;;;;;;;63.22;23.08;;;;;;;2.58;100.00;101327.22;5181123;28;20026;-79
2021/11/25 02:17:26;;;;;;;64.50;24.35;;;;;;;2.55;100.00;101319.47;5188614;28;20054;-78
2021/11/25 02:19:58;;;;;;;64.55;23.85;;;;;;;2.54;100.00;101312.47;5188244;28;20366;-77
2021/11/25 02:22:32;;;;;;;63.78;24.95;;;;;;;2.52;100.00;101311.72;5188450;28;20041;-79
2021/11/25 02:25:05;;;;;;;64.50;24.20;;;;;;;2.51;100.00;101318.00;5187922;28;20465;-79
2021/11/25 02:27:36;;;;;;;66.90;23.63;;;;;;;2.48;100.00;101310.25;5188011;28;20037;-78
2021/11/25 02:30:07;;;;;;;60.33;23.88;;;;;;;2.48;100.00;101309.41;5188307;28;20060;-78
2021/11/25 02:32:42;;;;;;;73.68;25.63;;;;;;;2.45;100.00;101302.50;5188320;28;20029;-78
2021/11/25 02:35:18;;;;;;;65.55;23.63;;;;;;;2.43;100.00;101298.25;5188578;28;20033;-78
2021/11/25 02:37:50;;;;;;;64.47;23.73;;;;;;;2.42;100.00;101309.81;5188440;28;20095;-79
2021/11/25 02:40:27;;;;;;;69.00;24.85;;;;;;;2.41;100.00;101302.78;5188256;28;20022;-79
2021/11/25 02:42:59;;;;;;;;;;;;;;;2.42;100.00;101288.63;5188232;28;20041;-78
2021/11/25 02:45:31;;;;;;;67.88;24.10;;;;;;;2.43;100.00;101283.22;5185474;28;19909;-79
2021/11/25 02:48:02;;;;;;;78.22;25.13;;;;;;;2.45;100.00;101291.06;5184733;28;20034;-78
2021/11/25 02:50:33;;;;;;;62.33;22.95;;;;;;;2.45;100.00;101281.31;5184529;28;20092;-76
2021/11/25 02:53:20;;;;;;;54.95;22.23;;;;;;;2.48;100.00;101285.56;5185581;28;20018;-79
2021/11/25 02:56:04;;;;;;;57.33;20.65;;;;;;;2.45;100.00;101281.31;5185013;28;20460;-79
2021/11/25 02:58:35;;;;;;;68.10;21.10;;;;;;;2.44;100.00;101282.25;5185751;28;20022;-78
2021/11/25 03:01:15;;;;;;;56.75;21.52;;;;;;;2.46;100.00;101274.19;5185604;28;20026;-79
2021/11/25 03:03:47;;;;;;;56.90;21.48;;;;;;;2.47;100.00;101270.63;5185266;28;20080;-78
2021/11/25 03:06:25;;;;;;;59.08;22.33;;;;;;;2.46;100.00;101266.25;5184961;28;20392;-78
2021/11/25 03:08:56;;;;;;;60.05;22.95;;;;;;;2.53;100.00;101272.84;5181261;28;20034;-78
2021/11/25 03:11:29;;;;;;;59.45;23.40;;;;;;;2.62;100.00;101274.88;5165395;28;20054;-78
2021/11/25 03:14:03;;;;;;;64.45;24.65;;;;;;;2.69;100.00;101275.28;5179758;28;20022;-77
2021/11/25 03:16:34;;;;;;;61.55;25.27;;;;;;;2.66;100.00;101265.78;5184936;28;20663;-77
2021/11/25 03:19:04;;;;;;;70.88;24.58;;;;;;;2.67;100.00;101262.16;5184418;28;20052;-79
2021/11/25 03:21:35;;;;;;;61.35;23.15;;;;;;;2.67;100.00;101261.31;5185542;28;20018;-79
2021/11/25 03:24:06;;;;;;;60.00;23.08;;;;;;;2.65;100.00;101256.09;5184655;28;20052;-78
2021/11/25 03:26:37;;;;;;;56.17;23.10;;;;;;;2.62;100.00;101251.03;5183362;28;20393;-78
2021/11/25 03:29:07;;;;;;;53.63;22.58;;;;;;;2.59;100.00;101252.09;5185216;28;20022;-80
2021/11/25 03:31:38;;;;;;;58.15;24.25;;;;;;;2.59;100.00;101246.78;5183704;28;20057;-79
2021/11/25 03:34:08;;;;;;;61.22;23.15;;;;;;;2.63;100.00;101254.53;5183177;28;20425;-79
2021/11/25 03:36:39;;;;;;;61.90;23.73;;;;;;;2.66;100.00;101256.94;5165025;28;20370;-79
2021/11/25 03:39:09;;;;;;;71.65;25.77;;;;;;;2.64;100.00;101272.97;5183423;28;20029;-79
2021/11/25 03:41:40;;;;;;;74.03;26.83;;;;;;;2.64;100.00;101265.00;5184824;28;20022;-79
2021/11/25 03:44:10;;;;;;;70.07;25.83;;;;;;;2.64;100.00;101259.72;5185046;28;20061;-77
2021/11/25 03:46:41;;;;;;;72.00;27.65;;;;;;;2.66;100.00;101257.81;5185604;28;20433;-79
2021/11/25 03:49:11;;;;;;;74.97;27.30;;;;;;;2.71;100.00;101260.13;5185747;28;20022;-78
2021/11/25 03:51:42;;;;;;;78.60;29.75;;;;;;;2.75;100.00;101264.28;5185885;28;20029;-79
2021/11/25 03:54:12;;;;;;;68.97;27.45;;;;;;;2.78;100.00;101262.28;5185423;28;20050;-79
2021/11/25 03:56:43;;;;;;;72.80;27.27;;;;;;;2.78;100.00;101259.63;5185679;28;20037;-78
2021/11/25 03:59:13;;;;;;;75.50;26.63;;;;;;;2.80;100.00;101259.50;5185608;28;20021;-78
2021/11/25 04:01:44;;;;;;;69.88;26.75;;;;;;;2.83;100.00;101257.50;5186949;28;20026;-79
2021/11/25 04:04:14;;;;;;;67.40;27.95;;;;;;;2.84;100.00;101253.03;5185281;28;20060;-79
2021/11/25 04:06:44;;;;;;;76.70;27.70;;;;;;;2.84;100.00;101240.63;5185831;28;20029;-79
2021/11/25 04:09:15;;;;;;;75.40;26.83;;;;;;;2.87;100.00;101236.09;5185604;28;20030;-79
2021/11/25 04:11:45;;;;;;;63.95;25.20;;;;;;;2.84;100.00;101243.28;5186346;28;20083;-79
2021/11/25 04:14:16;;;;;;;71.55;26.25;;;;;;;2.83;100.00;101238.09;5177910;28;20471;-78
2021/11/25 04:16:46;;;;;;;70.90;24.92;;;;;;;2.81;100.00;101240.88;5185971;28;20029;-78
2021/11/25 04:19:17;;;;;;;78.85;27.05;;;;;;;2.81;100.00;101245.28;5186092;28;20045;-78
2021/11/25 04:21:47;;;;;;;65.05;26.50;;;;;;;2.83;100.00;101240.75;5185122;28;20043;-78
2021/11/25 04:24:18;;;;;;;74.20;27.33;;;;;;;2.84;100.00;101234.50;5186131;28;20160;-79
2021/11/25 04:26:49;;;;;;;75.47;26.90;;;;;;;2.85;100.00;101237.03;5186472;28;20045;-78
2021/11/25 04:29:19;;;;;;;73.78;26.83;;;;;;;2.83;100.00;101233.66;5185381;28;20058;-77
2021/11/25 04:37:28;;;;;;;70.88;26.38;;;;;;;2.82;100.00;101234.63;5186658;28;20049;-78
2021/11/25 04:39:59;;;;;;;62.95;24.90;;;;;;;2.78;100.00;101230.47;5186664;28;20014;-78
2021/11/25 04:42:29;;;;;;;60.75;24.48;;;;;;;2.74;100.00;101242.22;5186196;28;20025;-78
2021/11/25 04:45:00;;;;;;;60.10;24.25;;;;;;;2.68;100.00;101241.81;5169132;28;20025;-79
2021/11/25 04:47:30;;;;;;;66.78;25.25;;;;;;;2.62;100.00;101243.09;5185895;28;20072;-78
2021/11/25 04:50:01;;;;;;;66.45;25.33;;;;;;;2.56;100.00;101248.78;5183918;28;20030;-78
2021/11/25 04:52:31;;;;;;;69.80;27.20;;;;;;;2.51;100.00;101251.78;5184899;28;20105;-79
2021/11/25 04:55:02;;;;;;;70.80;27.10;;;;;;;2.44;100.00;101252.28;5185643;28;20132;-77
2021/11/25 04:57:32;;;;;;;65.40;25.77;;;;;;;2.33;100.00;101247.72;5186218;28;20029;-78
2021/11/25 05:00:06;;;;;;;69.95;26.23;;;;;;;2.24;100.00;101251.81;5185260;28;20611;-78
2021/11/25 05:02:36;;;;;;;65.75;25.63;;;;;;;2.17;100.00;101244.41;5185963;28;20040;-79
2021/11/25 05:05:07;;;;;;;74.07;25.85;;;;;;;2.13;100.00;101237.63;5184487;28;20022;-78
2021/11/25 05:07:38;;;;;;;69.13;26.02;;;;;;;2.12;100.00;101231.47;5186055;28;20084;-77
2021/11/25 05:10:11;;;;;;;63.28;24.45;;;;;;;2.10;100.00;101238.66;5172355;28;20429;-79
2021/11/25 05:12:42;;;;;;;58.50;22.08;;;;;;;2.04;100.00;101239.06;5168732;28;20026;-78
2021/11/25 05:15:15;;;;;;;61.53;23.23;;;;;;;2.03;100.00;101245.31;5181185;28;20037;-78
2021/11/25 05:17:45;;;;;;;67.80;25.02;;;;;;;2.05;100.00;101235.47;5186245;28;20022;-78
2021/11/25 05:20:16;;;;;;;73.78;26.90;;;;;;;2.11;100.00;101244.78;5187544;28;20029;-81
2021/11/25 05:22:48;;;;;;;71.70;27.08;;;;;;;2.17;100.00;101239.13;5185569;28;20034;-81
2021/11/25 05:25:18;;;;;;;74.55;27.67;;;;;;;2.21;100.00;101238.81;5196530;28;20013;-78
2021/11/25 05:27:50;;;;;;;80.63;27.63;;;;;;;2.23;100.00;101238.69;5210382;28;20098;-78
2021/11/25 05:30:21;;;;;;;77.65;28.17;;;;;;;2.25;100.00;101242.91;5199083;28;20030;-80
2021/11/25 05:32:51;;;;;;;80.55;29.42;;;;;;;2.28;100.00;101232.13;5186231;28;20022;-80
2021/11/25 05:35:22;;;;;;;83.60;28.35;;;;;;;2.33;100.00;101237.13;5188653;28;20033;-80
2021/11/25 05:37:53;;;;;;;90.80;29.92;;;;;;;2.36;100.00;101238.69;5185711;28;20029;-80
2021/11/25 05:40:25;;;;;;;77.65;29.67;;;;;;;2.41;100.00;101233.94;5185517;28;20069;-80
2021/11/25 05:42:56;;;;;;;89.72;30.40;;;;;;;2.45;100.00;101238.09;5185143;28;20056;-80
2021/11/25 05:45:26;;;;;;;89.72;30.23;;;;;;;2.48;100.00;101240.53;5185600;28;20413;-80
2021/11/25 05:47:57;;;;;;;79.72;29.88;;;;;;;2.51;100.00;101235.88;5184380;28;20246;-80
2021/11/25 05:50:28;;;;;;;83.10;29.85;;;;;;;2.54;100.00;101229.50;5185416;28;20033;-80
2021/11/25 05:52:59;;;;;;;72.43;27.77;;;;;;;2.55;100.00;101234.69;5169020;28;20033;-80
2021/11/25 05:55:30;;;;;;;74.05;28.90;;;;;;;2.57;100.00;101230.16;5186507;28;20022;-79
2021/11/25 05:58:01;;;;;;;74.72;28.35;;;;;;;2.58;100.00;101223.91;5188150;28;20083;-80
2021/11/25 06:00:31;;;;;;;65.80;27.40;;;;;;;2.60;100.00;101229.09;5187625;28;20022;-81
2021/11/25 06:03:02;;;;;;;64.50;25.73;;;;;;;2.62;100.00;101234.31;5188321;28;20532;-78
2021/11/25 06:05:32;;;;;;;71.88;27.27;;;;;;;2.62;100.00;101226.34;5187761;28;20101;-80
2021/11/25 06:08:03;;;;;;;68.30;26.45;;;;;;;2.62;100.00;101224.56;5192561;28;20026;-81
2021/11/25 06:10:53;;;;;;;79.35;27.98;;;;;;;2.64;100.00;101225.28;5195389;28;20022;-78
2021/11/25 06:13:23;;;;;;;74.45;27.85;;;;;;;2.66;100.00;101222.50;5191438;28;20032;-78
2021/11/25 06:15:54;;;;;;;70.38;27.52;;;;;;;2.73;100.00;101222.00;5177387;28;20105;-76
2021/11/25 06:18:24;;;;;;;75.80;29.02;;;;;;;2.71;100.00;101220.41;5191226;28;20535;-80
2021/11/25 06:20:55;;;;;;;82.20;29.27;;;;;;;2.73;100.00;101218.50;5185411;28;20105;-80
2021/11/25 06:23:25;;;;;;;79.68;28.75;;;;;;;2.70;100.00;101221.34;5185622;28;20124;-84
2021/11/25 06:25:56;;;;;;;79.93;29.27;;;;;;;2.71;100.00;101213.31;5168070;28;20518;-83
2021/11/25 06:28:27;;;;;;;88.32;30.10;;;;;;;2.73;100.00;101222.00;5185137;28;20030;-80
2021/11/25 06:30:57;;;;;;;75.22;28.50;;;;;;;2.78;100.00;101219.03;5183923;28;20037;-81
2021/11/25 06:33:28;;;;;;;73.28;28.60;;;;;;;2.77;100.00;101210.25;5182699;28;20034;-80
2021/11/25 06:35:58;;;;;;;70.05;28.60;;;;;;;2.76;100.00;101205.03;5183132;28;20021;-80
2021/11/25 06:38:29;;;;;;;78.75;28.80;;;;;;;2.71;100.00;101200.06;5184633;28;20180;-79
2021/11/25 06:41:00;;;;;;;72.88;28.27;;;;;;;2.73;100.00;101206.09;5183642;28;20029;-79
2021/11/25 06:43:35;;;;;;;72.22;27.17;;;;;;;2.76;100.00;101210.31;5187633;28;20017;-76
2021/11/25 06:46:07;;;;;;;75.15;28.08;;;;;;;2.78;100.00;101211.09;5198448;28;20035;-76
2021/11/25 06:48:38;;;;;;;76.32;28.65;;;;;;;2.78;100.00;101208.44;5201037;28;20038;-81
2021/11/25 06:51:12;;;;;;;70.13;28.08;;;;;;;2.77;100.00;101215.53;5202244;28;20033;-76
2021/11/25 06:53:43;;;;;;;74.85;27.83;;;;;;;2.76;100.00;101203.25;5196836;28;20068;-78
2021/11/25 06:56:14;;;;;;;74.57;30.83;;;;;;;2.77;100.00;101220.84;5190645;28;20021;-78
2021/11/25 06:59:05;;;;;;;65.80;28.23;;;;;;;2.79;100.00;101220.72;5192238;28;20033;-77
2021/11/25 07:02:54;;;;;;;79.93;29.75;;;;;;;2.82;100.00;101233.75;5173869;28;20065;-75
2021/11/25 07:34:14;;;;;;;67.25;26.95;;;;;;;2.84;100.00;101203.53;5088080;29;20085;-75
2021/11/25 07:44:50;;;;;;;88.15;30.58;;;;;;;2.83;100.00;101219.56;5144844;28;20081;-74
2021/11/25 07:47:32;;;;;;;95.45;32.17;;;;;;;2.82;100.00;101216.06;5160848;28;20068;-76
2021/11/25 07:50:11;;;;;;;84.70;29.83;;;;;;;2.88;100.00;101211.28;5198616;28;20030;-75
2021/11/25 07:52:42;;;;;;;98.40;33.97;;;;;;;2.91;100.00;101213.69;5189864;28;20048;-74
2021/11/25 07:55:14;;;;;;;137.05;51.05;;;;;;;2.92;100.00;101208.31;5185181;28;20113;-75
2021/11/25 07:57:45;;;;;;;144.27;55.40;;;;;;;2.95;100.00;101215.19;5182897;28;20014;-76
2021/11/25 08:00:17;;;;;;;161.35;63.65;;;;;;;2.96;100.00;101219.53;5184850;28;20007;-76
2021/11/25 08:02:49;;;;;;;142.75;57.20;;;;;;;2.98;100.00;101220.28;5180698;28;20045;-74
2021/11/25 08:05:24;;;;;;;140.15;57.55;;;;;;;3.00;100.00;101207.75;5169339;28;20061;-79
2021/11/25 08:07:57;;;;;;;129.60;48.88;;;;;;;2.98;100.00;101215.81;5173854;28;20452;-77
2021/11/25 08:10:30;;;;;;;125.43;47.40;;;;;;;2.94;100.00;101208.19;5200885;28;20041;-75
2021/11/25 08:13:03;;;;;;;123.97;46.75;;;;;;;2.98;100.00;101214.97;5198705;28;20097;-74
2021/11/25 08:15:34;;;;;;;113.20;39.55;;;;;;;3.03;100.00;101211.03;5204297;28;20029;-76
2021/11/25 08:18:05;;;;;;;113.68;39.22;;;;;;;3.09;100.00;101207.09;5204552;28;20017;-74
2021/11/25 08:20:35;;;;;;;101.65;36.97;;;;;;;3.11;100.00;101210.50;5205823;28;20084;-74
2021/11/25 08:23:06;;;;;;;100.95;34.85;;;;;;;3.20;100.00;101216.94;5206004;28;20037;-74
2021/11/25 08:25:36;;;;;;;102.43;37.08;;;;;;;3.21;100.00;101211.53;5205265;28;20026;-74
2021/11/25 08:28:08;;;;;;;102.20;37.55;;;;;;;3.21;100.00;101222.13;5206207;28;20025;-74
2021/11/25 08:30:38;;;;;;;91.70;34.10;;;;;;;3.15;100.00;101219.06;5204848;28;20081;-74
2021/11/25 08:33:09;;;;;;;88.70;33.72;;;;;;;3.17;100.00;101214.53;5206045;28;20029;-74
2021/11/25 08:35:39;;;;;;;102.65;35.95;;;;;;;3.14;100.00;101217.38;5205593;28;20076;-75
2021/11/25 08:38:10;;;;;;;97.25;32.85;;;;;;;3.19;100.00;101213.44;5203594;28;20029;-76
2021/11/25 08:40:41;;;;;;;89.05;35.08;;;;;;;3.23;100.00;101214.94;5198262;28;20022;-79
2021/11/25 08:43:11;;;;;;;98.85;33.70;;;;;;;3.28;100.00;101211.94;5199942;28;20125;-74
2021/11/25 08:45:42;;;;;;;107.07;35.78;;;;;;;3.34;100.00;101217.66;5203167;28;20033;-76
2021/11/25 08:48:13;;;;;;;99.95;34.72;;;;;;;3.36;100.00;101218.41;5202431;28;20085;-74
2021/11/25 08:50:44;;;;;;;107.75;38.70;;;;;;;3.32;100.00;101218.72;5202722;28;20029;-76
2021/11/25 08:53:15;;;;;;;195.82;75.22;;;;;;;3.32;100.00;101216.09;5203580;28;20014;-75
2021/11/25 08:55:47;;;;;;;111.15;37.10;;;;;;;3.31;100.00;101219.66;5201475;28;20064;-74
2021/11/25 08:58:17;;;;;;;101.45;36.20;;;;;;;3.30;100.00;101216.16;5200004;28;20033;-75
2021/11/25 09:00:48;;;;;;;107.40;35.30;;;;;;;3.33;100.00;101220.41;5197254;28;20022;-76
2021/11/25 09:03:19;;;;;;;108.68;35.70;;;;;;;3.34;100.00;101228.25;5199212;28;20033;-79
2021/11/25 09:05:52;;;;;;;110.75;36.65;;;;;;;3.38;100.00;101232.38;5201472;28;20025;-75
2021/11/25 09:08:23;;;;;;;107.28;36.78;;;;;;;3.44;100.00;101224.94;5198315;28;20065;-76
2021/11/25 09:10:53;;;;;;;106.22;36.28;;;;;;;3.48;100.00;101219.31;5196213;28;20022;-76
2021/11/25 09:13:24;;;;;;;106.00;35.83;;;;;;;3.58;100.00;101211.53;5189752;28;20615;-76
2021/11/25 09:15:55;;;;;;;113.38;35.83;;;;;;;3.58;100.00;101206.22;5196160;28;20442;-76
2021/11/25 09:18:26;;;;;;;105.65;36.45;;;;;;;3.56;100.00;101213.44;5196256;28;20094;-76
2021/11/25 09:20:58;;;;;;;118.10;38.30;;;;;;;3.55;100.00;101219.69;5195746;28;20060;-76
2021/11/25 09:23:29;;;;;;;114.28;36.60;;;;;;;3.54;100.00;101226.81;5197689;28;20065;-75
2021/11/25 09:25:59;;;;;;;118.72;38.85;;;;;;;3.56;100.00;101226.69;5195529;28;20465;-76
2021/11/25 09:28:34;;;;;;;121.70;41.13;;;;;;;3.57;100.00;101231.91;5196053;28;20072;-76
2021/11/25 09:31:07;;;;;;;112.45;38.10;;;;;;;3.55;100.00;101231.16;5196246;28;20054;-76
2021/11/25 09:33:37;;;;;;;123.25;39.33;;;;;;;3.56;100.00;101226.69;5195703;28;20029;-76
2021/11/25 09:36:08;;;;;;;113.97;39.30;;;;;;;3.54;100.00;101232.13;5193491;28;20392;-76
2021/11/25 09:38:39;;;;;;;129.65;42.38;;;;;;;3.59;100.00;101229.97;5194200;28;20018;-75
2021/11/25 09:41:09;;;;;;;132.65;43.90;;;;;;;3.61;100.00;101233.38;5190432;28;20017;-76
2021/11/25 09:43:40;;;;;;;140.40;41.00;;;;;;;3.67;100.00;101236.56;5189353;28;20022;-75
2021/11/25 09:46:11;;;;;;;130.38;44.40;;;;;;;3.70;100.00;101238.97;5191108;28;20029;-76
2021/11/25 09:48:42;;;;;;;144.00;43.35;;;;;;;3.73;100.00;101238.75;5193324;28;20053;-76
2021/11/25 09:51:13;;;;;;;137.63;43.95;;;;;;;3.76;100.00;101238.50;5194103;28;20044;-76
2021/11/25 09:53:43;;;;;;;134.25;42.33;;;;;;;3.82;100.00;101233.63;5194293;28;20030;-75
2021/11/25 09:56:13;;;;;;;140.38;42.63;;;;;;;3.83;100.00;101237.13;5194423;28;20018;-76
2021/11/25 09:58:47;;;;;;;120.18;41.95;;;;;;;3.86;100.00;101243.03;5196987;28;20029;-76
2021/11/25 10:01:23;;;;;;;133.23;42.55;;;;;;;3.87;100.00;101246.56;5197787;28;20029;-75
2021/11/25 10:03:54;;;;;;;141.05;43.20;;;;;;;3.87;100.00;101244.75;5196526;28;20030;-76
2021/11/25 10:06:30;;;;;;;142.98;46.00;;;;;;;3.92;100.00;101240.91;5192158;28;20498;-76
2021/11/25 10:09:01;;;;;;;150.27;45.10;;;;;;;3.94;100.00;101253.09;5187382;28;20100;-77
2021/11/25 10:11:35;;;;;;;149.55;46.22;;;;;;;3.98;100.00;101248.41;5190943;28;20025;-76
2021/11/25 10:14:12;;;;;;;147.93;44.65;;;;;;;4.02;100.00;101245.41;5180990;28;20021;-77
2021/11/25 10:16:45;;;;;;;148.32;48.53;;;;;;;4.05;100.00;101244.31;5188920;28;20050;-77
2021/11/25 10:19:19;;;;;;;166.20;48.25;;;;;;;4.08;100.00;101238.78;5190330;28;20396;-77
2021/11/25 10:21:52;;;;;;;160.90;47.75;;;;;;;4.15;100.00;101232.03;5194468;28;20025;-76
2021/11/25 10:24:31;;;;;;;154.68;47.50;;;;;;;4.25;100.00;101235.69;5193399;28;20025;-77
2021/11/25 10:27:21;;;;;;;155.23;45.65;;;;;;;4.31;100.00;101229.91;5195882;28;20109;-76
2021/11/25 10:30:09;;;;;;;142.35;46.95;;;;;;;4.37;100.00;101240.09;5194816;28;20037;-77
2021/11/25 10:32:39;;;;;;;128.48;43.60;;;;;;;4.45;100.00;101233.34;5192087;28;20037;-76
2021/11/25 10:35:22;;;;;;;146.82;47.03;;;;;;;4.49;100.00;101233.00;5193220;28;20045;-77
2021/11/25 10:38:22;;;;;;;141.60;44.03;;;;;;;4.50;100.00;101229.38;5193497;28;20025;-76
2021/11/25 10:40:50;;;;;;;151.50;46.88;;;;;;;4.61;100.00;101237.34;5192871;28;20022;-76
2021/11/25 10:43:23;;;;;;;166.93;47.75;;;;;;;4.64;100.00;101231.81;5192984;28;20057;-76
2021/11/25 10:45:54;;;;;;;151.98;46.80;;;;;;;4.60;100.00;101237.47;5192396;28;20026;-76
2021/11/25 10:48:28;;;;;;;139.00;46.78;;;;;;;4.67;100.00;101231.59;5195549;28;20060;-75
2021/11/25 10:50:59;;;;;;;145.40;46.10;;;;;;;4.66;100.00;101229.88;5196692;28;20014;-75
2021/11/25 10:53:29;;;;;;;145.13;46.00;;;;;;;4.81;100.00;101222.53;5195942;28;20065;-76
2021/11/25 10:56:05;;;;;;;142.45;46.80;;;;;;;4.81;100.00;101225.19;5196379;28;20026;-76
2021/11/25 10:58:50;;;;;;;;;;;;;;;4.81;100.00;101227.00;5197116;28;20037;-76
2021/11/25 11:01:33;;;;;;;164.30;49.65;;;;;;;4.81;100.00;101219.00;5195844;28;19956;-75
2021/11/25 11:04:05;;;;;;;154.32;46.75;;;;;;;4.91;100.00;101218.16;5194876;28;20037;-77
2021/11/25 11:06:38;;;;;;;150.00;47.05;;;;;;;4.87;100.00;101222.06;5196132;28;20108;-76
2021/11/25 11:09:35;;;;;;;150.75;47.42;;;;;;;4.97;100.00;101216.00;5190360;28;20041;-76
2021/11/25 11:12:31;;;;;;;156.23;45.10;;;;;;;5.05;100.00;101217.09;5178250;28;20034;-76
2021/11/25 11:15:14;;;;;;;148.05;48.17;;;;;;;5.12;100.00;101214.78;5189701;28;20026;-76
2021/11/25 11:17:59;;;;;;;140.60;46.20;;;;;;;5.18;100.00;101223.13;5186352;28;20117;-76
2021/11/25 11:20:35;;;;;;;154.43;48.78;;;;;;;5.22;100.00;101218.44;5193762;28;20038;-77
2021/11/25 11:23:06;;;;;;;161.27;50.20;;;;;;;5.16;100.00;101216.22;5199455;28;20452;-76
2021/11/25 11:25:38;;;;;;;152.05;49.25;;;;;;;5.18;100.00;101212.50;5199389;28;20473;-80
2021/11/25 11:28:10;;;;;;;155.55;48.83;;;;;;;5.22;100.00;101220.22;5197558;28;20034;-81
2021/11/25 11:30:42;;;;;;;149.77;48.42;;;;;;;5.19;100.00;101208.03;5189933;28;20493;-80
2021/11/25 11:33:14;;;;;;;153.73;49.15;;;;;;;5.18;100.00;101209.84;5188604;28;20409;-76
2021/11/25 11:35:45;;;;;;;181.07;57.10;;;;;;;5.24;100.00;101215.63;5186710;28;20109;-80
2021/11/25 11:38:18;;;;;;;176.60;55.72;;;;;;;5.25;100.00;101217.31;5192503;28;20025;-77
2021/11/25 11:40:49;;;;;;;156.30;50.90;;;;;;;5.29;100.00;101216.13;5185028;28;20428;-83
2021/11/25 11:43:19;;;;;;;194.07;58.95;;;;;;;5.33;100.00;101215.75;5173674;28;20034;-77
2021/11/25 11:45:51;;;;;;;176.57;57.92;;;;;;;5.37;100.00;101214.53;5183673;28;20481;-76
2021/11/25 11:48:22;;;;;;;193.35;64.65;;;;;;;5.41;100.00;101226.59;5185085;28;20065;-77
2021/11/25 11:50:55;;;;;;;217.60;85.82;;;;;;;5.51;100.00;101221.38;5184375;28;20034;-77
2021/11/25 11:53:39;;;;;;;163.20;51.88;;;;;;;5.56;100.00;101218.34;5184383;28;20072;-77
2021/11/25 11:56:12;;;;;;;161.02;57.80;;;;;;;5.55;100.00;101220.16;5182935;28;20156;-77
2021/11/25 11:58:53;;;;;;;163.45;52.60;;;;;;;5.53;100.00;101213.28;5184315;28;20026;-77
2021/11/25 12:01:27;;;;;;;157.68;50.95;;;;;;;5.49;100.00;101206.53;5183322;28;20054;-77
2021/11/25 12:04:03;;;;;;;156.27;47.50;;;;;;;5.53;100.00;101211.47;5184885;28;20029;-77
2021/11/25 12:06:44;;;;;;;160.15;50.15;;;;;;;5.59;100.00;101213.63;5184255;28;20116;-77
2021/11/25 12:09:16;;;;;;;159.45;52.65;;;;;;;5.63;100.00;101195.59;5183625;28;20492;-77
2021/11/25 12:11:50;;;;;;;176.85;55.47;;;;;;;5.73;100.00;101191.22;5184823;28;20030;-77
2021/11/25 12:14:23;;;;;;;152.40;52.58;;;;;;;5.85;100.00;101192.84;5176422;28;20086;-77